createdAt,value
2018-07-15T00:01:36.356Z,8.97
2018-07-15T00:04:05.557Z,7.77
2018-07-15T00:06:34.751Z,8.20
2018-07-15T00:09:05.075Z,9.70
2018-07-15T00:11:34.196Z,8.47
2018-07-15T00:14:03.340Z,8.10
2018-07-15T00:16:32.512Z,7.30
2018-07-15T00:19:01.659Z,6.97
2018-07-15T00:21:30.804Z,6.33
2018-07-15T00:23:59.926Z,7.57
2018-07-15T00:26:29.091Z,4.10
2018-07-15T00:28:58.240Z,4.60
2018-07-15T00:31:27.380Z,7.37
2018-07-15T00:33:56.535Z,10.60
2018-07-15T00:36:25.804Z,9.37
2018-07-15T00:38:54.929Z,7.00
2018-07-15T00:41:24.120Z,4.20
2018-07-15T00:43:53.241Z,8.27
2018-07-15T00:46:22.367Z,10.00
2018-07-15T00:48:51.618Z,11.70
2018-07-15T00:51:20.755Z,11.63
2018-07-15T00:53:50.016Z,13.37
2018-07-15T00:56:19.864Z,9.47
2018-07-15T00:58:49.087Z,10.30
2018-07-15T01:01:18.195Z,9.80
2018-07-15T01:03:47.847Z,10.10
2018-07-15T01:06:16.667Z,12.50
2018-07-15T01:08:45.706Z,10.17
2018-07-15T01:11:14.857Z,11.43
2018-07-15T01:13:44.106Z,10.10
2018-07-15T01:16:13.239Z,10.30
2018-07-15T01:18:42.395Z,10.73
2018-07-15T01:21:11.565Z,11.70
2018-07-15T01:23:40.707Z,10.47
2018-07-15T01:26:10.094Z,9.10
2018-07-15T01:28:39.218Z,9.80
2018-07-15T01:31:08.141Z,10.03
2018-07-15T01:33:37.987Z,10.27
2018-07-15T01:36:07.168Z,10.17
2018-07-15T01:38:36.297Z,10.20
2018-07-15T01:41:05.379Z,9.50
2018-07-15T01:43:34.531Z,8.43
2018-07-15T01:46:03.659Z,9.00
2018-07-15T01:48:32.790Z,8.20
2018-07-15T01:51:01.916Z,8.90
2018-07-15T01:53:31.058Z,6.90
2018-07-15T01:56:00.207Z,7.97
2018-07-15T01:58:29.314Z,8.13
2018-07-15T02:00:58.442Z,8.87
2018-07-15T02:03:27.571Z,10.13
2018-07-15T02:05:56.676Z,10.53
2018-07-15T02:08:25.828Z,9.33
2018-07-15T02:10:55.192Z,10.60
2018-07-15T02:13:24.321Z,11.63
2018-07-15T02:15:53.500Z,11.30
2018-07-15T02:18:22.622Z,11.27
2018-07-15T02:20:51.839Z,11.30
2018-07-15T02:23:21.076Z,12.90
2018-07-15T02:25:50.189Z,13.43
2018-07-15T02:28:19.321Z,14.23
2018-07-15T02:30:48.424Z,15.40
2018-07-15T02:33:17.762Z,13.73
2018-07-15T02:35:46.940Z,15.10
2018-07-15T02:38:16.029Z,15.40
2018-07-15T02:40:45.187Z,16.60
2018-07-15T02:43:14.307Z,17.50
2018-07-15T02:45:43.417Z,22.00
2018-07-15T02:48:12.578Z,19.67
2018-07-15T02:50:41.813Z,18.63
2018-07-15T02:53:10.940Z,19.60
2018-07-15T02:55:40.102Z,18.20
2018-07-15T02:58:09.238Z,17.17
2018-07-15T03:00:38.420Z,18.03
2018-07-15T03:03:08.036Z,17.13
2018-07-15T03:05:36.851Z,16.33
2018-07-15T03:08:06.008Z,18.93
2018-07-15T03:10:35.103Z,19.07
2018-07-15T03:13:04.241Z,20.53
2018-07-15T03:15:33.432Z,17.10
2018-07-15T03:18:02.681Z,16.07
2018-07-15T03:20:31.916Z,18.47
2018-07-15T03:23:01.093Z,20.07
2018-07-15T03:25:30.239Z,18.37
2018-07-15T03:27:59.407Z,17.73
2018-07-15T03:30:28.570Z,18.73
2018-07-15T03:32:57.695Z,20.50
2018-07-15T03:35:26.819Z,17.50
2018-07-15T03:37:55.946Z,18.40
2018-07-15T03:40:25.124Z,19.23
2018-07-15T03:42:54.313Z,19.93
2018-07-15T03:45:23.504Z,15.30
2018-07-15T03:47:52.652Z,9.13
2018-07-15T03:50:21.843Z,7.40
2018-07-15T03:52:50.972Z,15.13
2018-07-15T03:55:20.188Z,15.87
2018-07-15T03:57:49.325Z,13.27
2018-07-15T04:00:18.510Z,12.03
2018-07-15T04:02:47.617Z,12.40
2018-07-15T04:05:16.841Z,12.33
2018-07-15T04:07:45.950Z,10.30
2018-07-15T04:10:15.215Z,9.43
2018-07-15T04:12:44.376Z,10.63
2018-07-15T04:15:13.584Z,12.50
2018-07-15T04:17:42.695Z,8.77
2018-07-15T04:20:11.997Z,9.03
2018-07-15T04:22:41.136Z,9.00
2018-07-15T04:25:10.291Z,7.20
2018-07-15T04:27:39.472Z,6.23
2018-07-15T04:30:08.636Z,7.57
2018-07-15T04:32:37.786Z,13.33
2018-07-15T04:35:06.942Z,13.90
2018-07-15T04:37:36.154Z,12.30
2018-07-15T04:40:05.369Z,18.93
2018-07-15T04:42:34.546Z,17.90
2018-07-15T04:45:03.665Z,17.83
2018-07-15T04:47:32.807Z,18.10
2018-07-15T04:50:01.960Z,18.13
2018-07-15T04:52:31.971Z,17.53
2018-07-15T04:55:01.100Z,16.30
2018-07-15T04:57:30.545Z,15.60
2018-07-15T04:59:59.690Z,15.53
2018-07-15T05:02:28.935Z,15.43
2018-07-15T05:04:58.060Z,15.13
2018-07-15T05:07:27.343Z,14.00
2018-07-15T05:09:56.572Z,15.20
2018-07-15T05:12:25.727Z,15.67
2018-07-15T05:14:54.879Z,14.67
2018-07-15T05:17:24.023Z,13.87
2018-07-15T05:19:53.186Z,13.70
2018-07-15T05:22:22.320Z,14.00
2018-07-15T05:24:51.452Z,12.93
2018-07-15T05:27:20.583Z,14.40
2018-07-15T05:29:50.262Z,13.23
2018-07-15T05:32:19.441Z,13.40
2018-07-15T05:34:48.657Z,13.60
2018-07-15T05:37:17.803Z,13.13
2018-07-15T05:39:46.920Z,11.90
2018-07-15T05:42:16.085Z,12.27
2018-07-15T05:44:45.220Z,11.50
2018-07-15T05:47:14.477Z,11.93
2018-07-15T05:49:43.648Z,12.57
2018-07-15T05:52:12.840Z,12.93
2018-07-15T05:54:42.014Z,13.53
2018-07-15T05:57:11.224Z,13.13
2018-07-15T05:59:40.316Z,12.07
2018-07-15T06:02:09.512Z,12.07
2018-07-15T06:04:38.646Z,10.90
2018-07-15T06:07:07.795Z,11.43
2018-07-15T06:09:37.093Z,9.93
2018-07-15T06:12:06.247Z,9.87
2018-07-15T06:14:35.414Z,9.93
2018-07-15T06:17:04.746Z,10.30
2018-07-15T06:19:34.559Z,9.70
2018-07-15T06:22:03.907Z,9.67
2018-07-15T06:24:33.020Z,7.87
2018-07-15T06:27:02.186Z,9.23
2018-07-15T06:29:31.351Z,9.50
2018-07-15T06:32:00.487Z,9.17
2018-07-15T06:34:29.662Z,8.60
2018-07-15T06:36:58.816Z,7.87
2018-07-15T06:39:28.099Z,8.27
2018-07-15T06:41:57.284Z,8.70
2018-07-15T06:44:26.426Z,8.83
2018-07-15T06:46:55.688Z,6.37
2018-07-15T06:49:24.880Z,6.53
2018-07-15T06:51:54.126Z,6.70
2018-07-15T06:54:23.233Z,6.93
2018-07-15T06:56:52.377Z,6.27
2018-07-15T06:59:21.690Z,5.73
2018-07-15T07:01:50.903Z,5.67
2018-07-15T07:04:20.075Z,5.60
2018-07-15T07:06:49.221Z,5.10
2018-07-15T07:09:18.321Z,4.60
2018-07-15T07:11:47.507Z,4.57
2018-07-15T07:14:16.691Z,4.80
2018-07-15T07:16:45.734Z,4.33
2018-07-15T07:19:14.861Z,4.30
2018-07-15T07:21:44.080Z,4.23
2018-07-15T07:24:13.168Z,4.20
2018-07-15T07:26:42.354Z,4.43
2018-07-15T07:29:11.513Z,5.17
2018-07-15T07:31:40.660Z,5.00
2018-07-15T07:34:09.824Z,5.20
2018-07-15T07:36:38.994Z,5.63
2018-07-15T07:39:08.139Z,4.20
2018-07-15T07:41:37.039Z,4.10
2018-07-15T07:44:06.249Z,3.40
2018-07-15T07:46:35.459Z,3.70
2018-07-15T07:49:04.667Z,3.40
2018-07-15T07:51:33.935Z,3.60
2018-07-15T07:54:03.160Z,4.10
2018-07-15T07:56:32.354Z,4.27
2018-07-15T07:59:01.498Z,4.10
2018-07-15T08:01:30.587Z,4.60
2018-07-15T08:03:59.745Z,4.13
2018-07-15T08:06:28.897Z,4.20
2018-07-15T08:08:58.060Z,3.07
2018-07-15T08:11:27.212Z,3.27
2018-07-15T08:13:56.064Z,3.10
2018-07-15T08:16:25.112Z,3.60
2018-07-15T08:18:54.256Z,3.17
2018-07-15T08:21:23.333Z,3.17
2018-07-15T08:23:52.487Z,3.93
2018-07-15T08:26:21.768Z,3.20
2018-07-15T08:28:51.149Z,2.83
2018-07-15T08:31:20.758Z,2.70
2018-07-15T08:33:49.874Z,3.43
2018-07-15T08:36:18.998Z,3.37
2018-07-15T08:38:48.161Z,3.10
2018-07-15T08:41:17.307Z,3.00
2018-07-15T08:43:46.447Z,2.90
2018-07-15T08:46:15.560Z,3.17
2018-07-15T08:48:44.712Z,3.07
2018-07-15T08:51:13.494Z,3.93
2018-07-15T08:53:42.543Z,4.87
2018-07-15T08:56:11.670Z,2.87
2018-07-15T08:58:40.764Z,2.70
2018-07-15T09:01:10.024Z,2.80
2018-07-15T09:03:39.257Z,2.90
2018-07-15T09:06:08.393Z,3.83
2018-07-15T09:08:37.663Z,3.00
2018-07-15T09:11:06.844Z,2.97
2018-07-15T09:13:36.052Z,3.17
2018-07-15T09:16:05.162Z,2.83
2018-07-15T09:18:34.391Z,2.70
2018-07-15T09:21:03.685Z,3.27
2018-07-15T09:23:32.832Z,3.23
2018-07-15T09:26:02.048Z,3.40
2018-07-15T09:28:31.922Z,2.93
2018-07-15T09:31:01.521Z,2.77
2018-07-15T09:33:30.702Z,2.80
2018-07-15T09:35:59.880Z,2.60
2018-07-15T09:38:29.108Z,3.37
2018-07-15T09:40:58.298Z,3.00
2018-07-15T09:43:27.127Z,2.63
2018-07-15T09:45:56.173Z,2.80
2018-07-15T09:48:25.308Z,3.23
2018-07-15T09:50:54.736Z,3.53
2018-07-15T09:53:23.918Z,4.10
2018-07-15T09:55:53.037Z,3.20
2018-07-15T09:58:22.033Z,3.80
2018-07-15T10:00:56.608Z,3.27
2018-07-15T10:03:27.052Z,3.13
2018-07-15T10:05:56.312Z,3.50
2018-07-15T10:08:25.449Z,3.60
2018-07-15T10:10:54.635Z,3.50
2018-07-15T10:13:23.859Z,3.97
2018-07-15T10:15:53.059Z,3.80
2018-07-15T10:18:22.270Z,3.67
2018-07-15T10:20:52.158Z,3.50
2018-07-15T10:23:21.324Z,4.20
2018-07-15T10:25:50.497Z,3.87
2018-07-15T10:28:19.699Z,3.90
2018-07-15T10:30:48.853Z,3.10
2018-07-15T10:33:18.070Z,4.00
2018-07-15T10:35:47.253Z,4.30
2018-07-15T10:38:16.398Z,3.57
2018-07-15T10:40:45.665Z,3.57
2018-07-15T10:43:14.820Z,4.20
2018-07-15T10:45:44.091Z,3.33
2018-07-15T10:48:13.275Z,3.20
2018-07-15T10:50:42.464Z,2.80
2018-07-15T10:53:11.674Z,4.23
2018-07-15T10:55:40.956Z,2.97
2018-07-15T10:58:10.184Z,2.50
2018-07-15T11:00:39.439Z,2.77
2018-07-15T11:03:08.624Z,3.10
2018-07-15T11:05:37.841Z,2.50
2018-07-15T11:08:07.010Z,2.20
2018-07-15T11:10:36.165Z,2.37
2018-07-15T11:13:05.944Z,2.47
2018-07-15T11:15:35.074Z,2.60
2018-07-15T11:18:04.323Z,2.83
2018-07-15T11:20:33.549Z,2.27
2018-07-15T11:23:02.755Z,2.30
2018-07-15T11:25:31.895Z,2.27
2018-07-15T11:28:01.241Z,2.63
2018-07-15T11:30:30.605Z,2.00
2018-07-15T11:32:59.752Z,2.40
2018-07-15T11:35:28.872Z,2.00
2018-07-15T11:37:58.049Z,1.80
2018-07-15T11:40:27.174Z,2.00
2018-07-15T11:42:56.334Z,2.10
2018-07-15T11:45:25.544Z,2.00
2018-07-15T11:47:54.718Z,2.10
2018-07-15T11:50:23.868Z,2.13
2018-07-15T11:52:53.071Z,1.90
2018-07-15T11:55:22.233Z,1.97
2018-07-15T11:57:51.508Z,2.20
2018-07-15T12:00:20.667Z,2.00
2018-07-15T12:02:49.955Z,1.90
2018-07-15T12:05:19.116Z,2.00
2018-07-15T12:07:48.372Z,3.13
2018-07-15T12:10:18.265Z,2.33
2018-07-15T12:12:47.481Z,2.20
2018-07-15T12:15:17.301Z,2.77
2018-07-15T12:17:46.501Z,2.50
2018-07-15T12:20:15.725Z,2.47
2018-07-15T12:22:44.957Z,2.70
2018-07-15T12:25:14.151Z,2.50
2018-07-15T12:27:44.110Z,2.70
2018-07-15T12:30:13.935Z,2.70
2018-07-15T12:32:43.652Z,2.83
2018-07-15T12:35:12.899Z,2.80
2018-07-15T12:37:42.036Z,2.90
2018-07-15T12:40:11.189Z,2.83
2018-07-15T12:42:40.377Z,3.00
2018-07-15T12:45:09.638Z,3.27
2018-07-15T12:47:38.813Z,3.47
2018-07-15T12:50:08.730Z,3.02
2018-07-15T12:52:37.940Z,3.47
2018-07-15T12:55:07.161Z,3.25
2018-07-15T12:57:36.426Z,3.10
2018-07-15T13:00:06.214Z,3.25
2018-07-15T13:02:35.424Z,3.12
2018-07-15T13:05:04.607Z,4.55
2018-07-15T13:07:33.696Z,2.70
2018-07-15T13:10:02.950Z,2.90
2018-07-15T13:12:32.108Z,2.80
2018-07-15T13:15:01.268Z,3.20
2018-07-15T13:17:30.698Z,4.25
2018-07-15T13:19:59.857Z,3.20
2018-07-15T13:22:29.126Z,3.97
2018-07-15T13:24:58.316Z,3.90
2018-07-15T13:27:27.608Z,3.27
2018-07-15T13:29:56.874Z,3.43
2018-07-15T13:32:26.090Z,3.37
2018-07-15T13:34:55.236Z,3.30
2018-07-15T13:37:24.369Z,3.00
2018-07-15T13:39:53.600Z,3.63
2018-07-15T13:42:22.760Z,3.20
2018-07-15T13:44:52.032Z,3.20
2018-07-15T13:47:21.238Z,3.42
2018-07-15T13:49:50.383Z,3.90
2018-07-15T13:52:19.561Z,3.47
2018-07-15T13:54:48.706Z,3.73
2018-07-15T13:57:17.858Z,3.87
2018-07-15T13:59:47.008Z,3.57
2018-07-15T14:02:16.136Z,2.97
2018-07-15T14:04:46.039Z,3.22
2018-07-15T14:07:15.220Z,3.30
2018-07-15T14:09:44.482Z,3.10
2018-07-15T14:12:13.652Z,4.60
2018-07-15T14:14:42.811Z,3.98
2018-07-15T14:17:11.980Z,3.20
2018-07-15T14:19:41.099Z,2.83
2018-07-15T14:22:10.332Z,2.93
2018-07-15T14:24:39.513Z,3.23
2018-07-15T14:27:08.707Z,3.37
2018-07-15T14:29:37.959Z,3.17
2018-07-15T14:32:07.205Z,3.77
2018-07-15T14:34:36.416Z,3.87
2018-07-15T14:37:05.688Z,5.08
2018-07-15T14:39:38.342Z,4.00
2018-07-15T14:42:08.084Z,4.03
2018-07-15T14:44:38.610Z,3.93
2018-07-15T14:47:07.470Z,3.30
2018-07-15T14:49:36.632Z,3.10
2018-07-15T14:52:06.431Z,5.83
2018-07-15T14:54:35.657Z,2.83
2018-07-15T14:57:04.930Z,2.97
2018-07-15T14:59:34.040Z,3.10
2018-07-15T15:02:03.348Z,3.83
2018-07-15T15:04:32.508Z,4.97
2018-07-15T15:07:01.697Z,3.57
2018-07-15T15:09:31.030Z,3.20
2018-07-15T15:12:00.190Z,2.73
2018-07-15T15:14:30.968Z,4.93
2018-07-15T15:17:00.413Z,3.33
2018-07-15T15:19:29.595Z,3.50
2018-07-15T15:21:58.772Z,4.07
2018-07-15T15:24:28.202Z,4.47
2018-07-15T15:26:57.436Z,7.07
2018-07-15T15:29:27.329Z,4.23
2018-07-15T15:31:56.506Z,5.90
2018-07-15T15:34:25.715Z,4.37
2018-07-15T15:36:54.908Z,4.80
2018-07-15T15:39:24.182Z,4.43
2018-07-15T15:41:53.674Z,3.90
2018-07-15T15:44:22.806Z,4.70
2018-07-15T15:46:51.999Z,3.93
2018-07-15T15:49:21.151Z,5.40
2018-07-15T15:51:50.332Z,3.90
2018-07-15T15:54:19.542Z,3.50
2018-07-15T15:56:48.709Z,4.73
2018-07-15T15:59:17.864Z,4.10
2018-07-15T16:01:47.037Z,3.60
2018-07-15T16:04:16.218Z,3.83
2018-07-15T16:06:45.470Z,3.93
2018-07-15T16:09:14.696Z,3.40
2018-07-15T16:11:43.912Z,3.30
2018-07-15T16:14:12.771Z,3.20
2018-07-15T16:16:41.902Z,3.20
2018-07-15T16:19:11.033Z,4.17
2018-07-15T16:21:40.185Z,3.10
2018-07-15T16:24:09.440Z,3.13
2018-07-15T16:26:38.593Z,2.90
2018-07-15T16:29:07.797Z,2.90
2018-07-15T16:31:36.984Z,2.93
2018-07-15T16:34:06.322Z,3.23
2018-07-15T16:36:35.515Z,3.47
2018-07-15T16:39:05.344Z,2.93
2018-07-15T16:41:34.711Z,2.73
2018-07-15T16:44:10.700Z,4.10
2018-07-15T16:46:39.897Z,3.97
2018-07-15T16:49:08.798Z,3.30
2018-07-15T16:51:37.973Z,3.30
2018-07-15T16:54:07.112Z,3.07
2018-07-15T16:56:36.307Z,4.47
2018-07-15T16:59:05.521Z,4.87
2018-07-15T17:01:34.746Z,4.37
2018-07-15T17:04:03.950Z,6.20
2018-07-15T17:06:33.877Z,4.00
2018-07-15T17:09:03.455Z,2.87
2018-07-15T17:11:32.677Z,4.73
2018-07-15T17:14:02.080Z,4.50
2018-07-15T17:16:31.212Z,4.20
2018-07-15T17:19:00.364Z,3.57
2018-07-15T17:21:29.592Z,3.33
2018-07-15T17:23:58.743Z,5.03
2018-07-15T17:26:27.584Z,4.20
2018-07-15T17:28:57.298Z,3.57
2018-07-15T17:31:26.449Z,3.00
2018-07-15T17:33:55.655Z,5.20
2018-07-15T17:36:24.844Z,2.83
2018-07-15T17:38:54.562Z,2.83
2018-07-15T17:41:23.795Z,2.73
2018-07-15T17:43:52.938Z,5.80
2018-07-15T17:46:22.305Z,5.67
2018-07-15T17:48:51.371Z,3.53
2018-07-15T17:51:20.587Z,3.20
2018-07-15T17:53:50.402Z,3.43
2018-07-15T17:56:19.560Z,2.90
2018-07-15T17:58:48.799Z,5.40
2018-07-15T18:01:17.922Z,2.80
2018-07-15T18:03:47.023Z,3.10
2018-07-15T18:06:16.272Z,3.70
2018-07-15T18:08:45.442Z,3.73
2018-07-15T18:11:14.588Z,4.03
2018-07-15T18:13:43.729Z,3.33
2018-07-15T18:16:12.925Z,2.90
2018-07-15T18:18:42.024Z,4.63
2018-07-15T18:21:11.201Z,3.13
2018-07-15T18:23:40.363Z,3.20
2018-07-15T18:26:09.516Z,3.27
2018-07-15T18:28:39.713Z,3.17
2018-07-15T18:31:08.941Z,3.30
2018-07-15T18:33:38.151Z,3.20
2018-07-15T18:36:07.336Z,3.40
2018-07-15T18:38:36.507Z,4.23
2018-07-15T18:41:05.752Z,3.63
2018-07-15T18:43:35.265Z,3.40
2018-07-15T18:46:04.813Z,3.67
2018-07-15T18:48:34.229Z,3.70
2018-07-15T18:51:03.609Z,3.80
2018-07-15T18:53:32.732Z,3.73
2018-07-15T18:56:01.953Z,3.90
2018-07-15T18:58:31.198Z,3.67
2018-07-15T19:01:00.434Z,3.60
2018-07-15T19:03:29.707Z,4.40
2018-07-15T19:05:58.873Z,4.13
2018-07-15T19:08:28.048Z,4.37
2018-07-15T19:10:57.334Z,4.17
2018-07-15T19:13:26.542Z,4.07
2018-07-15T19:15:55.808Z,4.90
2018-07-15T19:18:24.943Z,3.77
2018-07-15T19:20:54.743Z,4.60
2018-07-15T19:23:23.899Z,3.97
2018-07-15T19:25:53.076Z,4.00
2018-07-15T19:28:22.258Z,4.60
2018-07-15T19:30:51.154Z,3.80
2018-07-15T19:33:20.195Z,4.77
2018-07-15T19:35:49.432Z,4.40
2018-07-15T19:38:18.568Z,3.63
2018-07-15T19:40:47.721Z,3.90
2018-07-15T19:43:16.864Z,4.00
2018-07-15T19:45:46.080Z,5.07
2018-07-15T19:48:15.192Z,4.10
2018-07-15T19:50:44.323Z,3.80
2018-07-15T19:53:13.496Z,3.83
2018-07-15T19:55:42.668Z,3.90
2018-07-15T19:58:11.897Z,4.03
2018-07-15T20:00:41.093Z,3.93
2018-07-15T20:03:10.259Z,3.90
2018-07-15T20:05:39.628Z,4.03
2018-07-15T20:08:08.777Z,3.80
2018-07-15T20:10:38.506Z,3.83
2018-07-15T20:13:07.823Z,4.83
2018-07-15T20:15:37.590Z,4.43
2018-07-15T20:18:07.496Z,4.17
2018-07-15T20:20:36.788Z,5.13
2018-07-15T20:23:06.048Z,5.13
2018-07-15T20:25:35.212Z,3.97
2018-07-15T20:28:04.409Z,4.10
2018-07-15T20:30:33.532Z,4.60
2018-07-15T20:33:02.691Z,4.50
2018-07-15T20:35:31.853Z,4.20
2018-07-15T20:38:01.012Z,4.17
2018-07-15T20:40:30.199Z,5.33
2018-07-15T20:42:59.851Z,4.30
2018-07-15T20:45:29.105Z,5.00
2018-07-15T20:47:58.270Z,4.50
2018-07-15T20:50:27.452Z,4.70
2018-07-15T20:52:56.534Z,4.73
2018-07-15T20:55:25.692Z,4.17
2018-07-15T20:57:54.812Z,4.40
2018-07-15T21:00:24.028Z,4.47
2018-07-15T21:02:53.176Z,4.83
2018-07-15T21:05:22.275Z,4.53
2018-07-15T21:07:51.452Z,4.10
2018-07-15T21:10:20.681Z,4.53
2018-07-15T21:12:49.941Z,4.43
2018-07-15T21:15:19.338Z,4.30
2018-07-15T21:17:51.401Z,4.23
2018-07-15T21:20:20.614Z,4.93
2018-07-15T21:22:50.464Z,4.53
2018-07-15T21:25:19.578Z,4.53
2018-07-15T21:27:48.712Z,5.30
2018-07-15T21:30:17.845Z,5.10
2018-07-15T21:32:46.960Z,4.77
2018-07-15T21:35:16.176Z,5.50
2018-07-15T21:37:45.375Z,3.97
2018-07-15T21:40:14.543Z,4.67
2018-07-15T21:42:44.136Z,5.37
2018-07-15T21:45:13.362Z,4.27
2018-07-15T21:47:42.594Z,5.13
2018-07-15T21:50:11.777Z,6.43
2018-07-15T21:52:40.963Z,4.77
2018-07-15T21:55:10.168Z,4.93
2018-07-15T21:57:39.379Z,4.87
2018-07-15T22:00:09.115Z,4.80
2018-07-15T22:02:38.353Z,5.33
2018-07-15T22:05:07.483Z,4.73
2018-07-15T22:07:47.824Z,4.97
2018-07-15T22:10:29.953Z,5.30
2018-07-15T22:12:59.172Z,5.50
2018-07-15T22:15:28.392Z,4.83
2018-07-15T22:17:57.603Z,4.43
2018-07-15T22:20:26.727Z,6.40
2018-07-15T22:22:55.894Z,4.30
2018-07-15T22:25:25.047Z,4.33
2018-07-15T22:27:54.153Z,3.97
2018-07-15T22:30:23.320Z,4.27
2018-07-15T22:32:52.422Z,3.90
2018-07-15T22:35:21.567Z,5.63
2018-07-15T22:37:50.765Z,4.00
2018-07-15T22:40:20.059Z,4.37
2018-07-15T22:42:49.207Z,4.30
2018-07-15T22:45:18.339Z,5.00
2018-07-15T22:47:47.461Z,4.47
2018-07-15T22:50:16.582Z,4.47
2018-07-15T22:52:45.743Z,5.33
2018-07-15T22:55:14.931Z,4.20
2018-07-15T22:57:44.082Z,4.50
2018-07-15T23:00:13.328Z,5.03
2018-07-15T23:02:42.560Z,4.47
2018-07-15T23:05:52.089Z,4.23
2018-07-15T23:08:21.780Z,4.10
2018-07-15T23:10:50.980Z,4.00
2018-07-15T23:13:20.559Z,4.30
2018-07-15T23:15:50.199Z,4.60
2018-07-15T23:18:19.418Z,3.97
2018-07-15T23:20:49.211Z,6.70
2018-07-15T23:23:18.425Z,4.37
2018-07-15T23:25:47.572Z,5.87
2018-07-15T23:28:17.619Z,5.47
2018-07-15T23:30:46.879Z,4.83
2018-07-15T23:33:16.236Z,4.97
2018-07-15T23:35:45.050Z,4.60
2018-07-15T23:38:14.117Z,5.17
2018-07-15T23:40:43.237Z,4.30
2018-07-15T23:43:12.468Z,4.57
2018-07-15T23:45:41.701Z,4.97
2018-07-15T23:48:10.876Z,6.93
2018-07-15T23:50:40.089Z,4.47
2018-07-15T23:53:09.205Z,4.30
2018-07-15T23:55:38.320Z,4.37
2018-07-15T23:58:07.522Z,5.00
